Airfield :
LOGIN :

Register | Disclaimer

   EN    FR    IT 

 










Legend :    VFR   Marginal VFR   IFR   Intensive IFR   Very Intensive IFR
Visi :
Ceiling :
>= 8 km
>= 3000ft
5 to 8 km
1000 to 3000 ft
1500m to 5 km
500 to 1000 ft
800 to 1500m
200 to 500 ft
< 800m
< 200 ft
Symbols :   Thunderstorms  Fog  Heavy snow  Heavy precipitations  Wind > 20 kt
SIGMETs :     Misc.  Thunderstorms  Icing  Turbulence  Mountain Waves  Volcanic Ashes






- Airport Elevation : 348 ft
- IATA code : TSR


LRTR - Timisoara

CURRENT METAR :
  • 310800Z 26011KT 220V290 9999 FEW030 16/08 Q1012

EXPIRED METARs :
  • 310730Z 24009KT 9999 FEW030 16/09 Q1012
  • 310700Z 22009KT CAVOK 14/09 Q1012
  • 310630Z 23007KT CAVOK 14/09 Q1013
  • 310600Z 23006KT 200V260 CAVOK 13/08 Q1012
  • 310530Z 22007KT CAVOK 11/08 Q1013
  • 310500Z 24005KT 190V270 CAVOK 11/08 Q1013

TAF TAF LRTR
Valid from the 31 at 06:00 until the 01 at 06:00 UTC


310500Z 3106/0106 27012KT CAVOK
TEMPO 3110/3115 29015G25KT
BECMG 3117/3119 VRB04KT
PROB30
TEMPO 0102/0106 3000 -RA BR BKN010 BKN030



MET'MAP, your aeronautical weather chart ! - Copyright ORBIFLY December 2007 - Disclaimer

ORBIFLY MET'MAP TEAM :

Programming & Development : Alexandra Zaïnal
Concept & original design : Baudouin d'Aumeries
Assistance for programming : Marc-Olivier Méhu
Technical & hardware support : Manuel Goepfert

Contact : metmap@orbifly.com




SOURCES & CREDITS :

   NOAA